• vieta
  • image
  • image
  • image
mod_vvisit_countermod_vvisit_countermod_vvisit_countermod_vvisit_countermod_vvisit_countermod_vvisit_counter
mod_vvisit_counterŠiandien472
mod_vvisit_counterVakar522
mod_vvisit_counterŠią savaitę1402
mod_vvisit_counterPraėjusią savaitę3827
mod_vvisit_counterŠį mėnesį16456
mod_vvisit_counterPraėjusį mėnesį19718
mod_vvisit_counterViso362957

Mes turime: 5 svečius online
Jūsų IP: 54.162.253.111
 , 
Šiandien: Birž 29, 2016

Šiandien

Trečiadienis, 29 Birželis 2016

Orų prognozė

Šiauliai 23 °C
   

Orų prognozė aviacijai

[source: ADDS]
METAR
EYSA 291550Z 22009KT 190V270 CAVOK 23/12 Q1014 BLU NOSIG =
TAF
TAF EYSA 291400Z 2915/2924 VRB04KT 9000 SCT040 TEMPO 2915/2918 BKN030CB TEMPO 2918/2924 TSRA BKN020CB =
SR / SS: 01:52 / 19:10 UTC (EYSA 2016-06-29)

Paieška

Lankytojai

Mes turime 5 svečius online

tic logo lt